45.2F
Current conditions from King Hill
Updated every 5 minutes
 
  Sunday April 5, 2020

Observations for Westford

Westford

44° 37' 38"N, 73° 02' 29"W, Elevation 850 ft.
Eastern Time

Hourly observations for the last 72 hours

Date Time Temperature (°F) Humi-
dity

(%)
Wind
(mph)
Pressure Rain (in)
Air Dew 6 Hour 1 Hr 3 Hr 6 Hr Day
Alt
(in)
Sea
Level

(mb)
Max Min
5 08:00 44.0 37.3 44.0 37.3 77 SW 0 G 3 29.98 1015.4 0.00
5 07:00 38.3 35.6 90 Calm 29.97 1015.1 0.00
5 06:00 38.6 35.6 89 Calm 29.97 1015.0 0.00
5 05:00 39.1 36.1 89 Calm 29.97 1014.9 0.00
5 04:00 39.1 36.1 89 Calm 29.98 1015.1 0.00
5 03:00 38.7 35.7 89 Calm 29.98 1015.2 0.00
5 02:00 37.3 34.4 44.4 35.9 89 Calm 29.98 1015.4 0.00
5 01:00 36.6 33.1 87 Calm 29.99 1015.5 0.00
5 00:00 36.9 33.4 87 Calm 29.99 1015.5 0.02
4 23:00 38.5 34.7 86 WNW 0 G 2 29.99 1015.6 0.02
4 22:00 39.9 35.2 83 Calm 29.99 1015.5 0.02
4 21:00 41.3 35.9 81 Calm 29.98 1015.4 0.02
4 20:00 44.4 37.3 55.2 44.4 76 Calm 29.97 1015.0 0.02
4 19:00 50.2 38.5 64 WNW 0 G 1 29.97 1015.0 0.02
4 18:00 52.7 40.5 63 N 2 G 9 29.97 1014.8 0.02
4 17:00 53.4 41.1 63 WNW 5 G 9 29.96 1014.7 0.02
4 16:00 55.1 41.9 61 W 3 G 9 29.96 1014.7 0.02
4 15:00 53.6 43.3 68 NNW 3 G 8 29.97 1015.1 0.02
4 14:00 50.4 41.7 50.6 37.4 72 Calm 29.98 1015.4 0.02 0.02
4 13:00 48.7 42.5 79 W 3 G 7 30.00 1015.9 0.02
4 12:00 44.6 42.7 93 WNW 0 G 5 30.01 1016.4 0.02
4 11:00 43.6 41.4 92 NNW 3 G 4 30.02 1016.5 0.02 0.02
4 10:00 41.6 39.7 93 N 0 G 5 30.02 1016.5 0.01 0.02
4 09:00 40.6 38.5 92 Calm 30.01 1016.3 0.01 0.01
4 08:00 37.4 36.1 40.4 33.5 95 Calm 30.00 1016.0 0.00
4 07:00 35.9 34.9 96 Calm 29.99 1015.7 0.00
4 06:00 34.3 32.5 93 Calm 29.98 1015.1 0.00
4 05:00 35.4 33.3 92 N 0 G 1 29.96 1014.7 0.00
4 04:00 39.6 36.3 88 N 0 G 1 29.95 1014.4 0.00
4 03:00 39.4 36.4 89 Calm 29.96 1014.5 0.00
4 02:00 40.3 36.7 46.6 38.7 87 N 0 G 4 29.95 1014.4 0.01 0.01 0.00
4 01:00 39.0 37.1 93 Calm 29.95 1014.4 0.00
4 00:00 40.3 37.9 91 N 0 G 3 29.95 1014.2 0.01 0.14
3 23:00 44.1 40.2 86 Calm 29.95 1014.2 0.13
3 22:00 44.9 39.7 82 NNW 2 G 8 29.95 1014.1 0.13
3 21:00 45.1 41.8 88 WNW 0 G 5 29.94 1013.8 0.13
3 20:00 46.5 42.5 51.3 46.1 86 NNW 1 G 6 29.92 1013.2 0.13
3 19:00 47.3 43.3 86 NNW 0 G 4 29.91 1012.7 0.13
3 18:00 48.9 44.3 84 Calm 29.89 1012.2 0.13
3 17:00 49.2 43.0 79 NNW 3 G 9 29.86 1011.2 0.13
3 16:00 50.4 43.1 76 NNW 3 G 9 29.84 1010.7 0.13
3 15:00 51.1 43.1 74 NNW 3 G 14 29.82 1009.9 0.13
3 14:00 50.1 43.5 50.1 40.2 78 NNW 3 G 9 29.81 1009.7 0.13
3 13:00 49.0 44.1 83 N 1 G 11 29.80 1009.3 0.13
3 12:00 48.1 42.6 81 NNW 7 G 15 29.79 1008.7 0.13
3 11:00 46.8 42.5 85 NNW 4 G 12 29.78 1008.4 0.13
3 10:00 47.6 44.8 90 N 3 G 11 29.77 1008.2 0.13
3 09:00 44.2 43.4 97 NNW 4 G 11 29.75 1007.5 0.13
3 08:00 40.2 39.4 40.2 37.8 97 NW 2 G 10 29.72 1006.5 0.06 0.11 0.13
3 07:00 39.5 38.7 97 NNW 2 G 12 29.71 1006.2 0.01 0.13
3 06:00 39.2 38.4 97 NNW 2 G 13 29.69 1005.5 0.05 0.12
3 05:00 39.2 38.4 97 NW 1 G 4 29.67 1004.9 0.02 0.05 0.07
3 04:00 38.9 38.1 97 NW 1 G 9 29.67 1004.7 0.05
3 03:00 38.2 37.4 97 NNE 3 G 8 29.66 1004.6 0.03 0.05
3 02:00 37.8 37.0 37.8 35.7 97 NNW 1 G 9 29.67 1004.7 0.01 0.05 0.19 0.02
3 01:00 37.4 36.4 96 N 2 G 8 29.68 1005.1 0.01 0.01
3 00:00 37.0 36.0 96 NW 1 G 5 29.69 1005.5 0.03 0.32
2 23:00 36.7 35.7 96 WNW 3 G 10 29.71 1006.1 0.03 0.14 0.29
2 22:00 35.9 34.6 95 NW 3 G 10 29.73 1006.9 0.05 0.26
2 21:00 35.8 34.5 95 NNW 2 G 13 29.76 1007.8 0.06 0.21
2 20:00 35.9 34.6 36.6 35.6 95 NW 3 G 11 29.75 1007.6 0.04 0.08 0.14 0.15
2 19:00 35.9 34.6 95 WNW 4 G 13 29.75 1007.6 0.02 0.11
2 18:00 35.9 34.6 95 WNW 6 G 12 29.75 1007.6 0.02 0.09
2 17:00 35.7 34.1 94 WNW 1 G 12 29.75 1007.5 0.03 0.06 0.07
2 16:00 36.4 34.8 94 WNW 4 G 12 29.75 1007.6 0.02 0.04
2 15:00 36.3 34.5 93 WNW 4 G 12 29.75 1007.6 0.01 0.02
2 14:00 36.6 33.9 38.5 33.1 90 NW 4 G 8 29.75 1007.6 0.01 0.01 0.01 0.01
2 13:00 37.4 33.0 84 WNW 7 G 12 29.77 1008.0 0.00
2 12:00 38.0 33.3 83 NW 5 G 15 29.77 1008.2 0.00
2 11:00 36.5 32.1 84 NNW 3 G 11 29.79 1008.7 0.00
2 10:00 35.2 30.9 84 NNW 3 G 14 29.80 1009.2 0.00
2 09:00 34.1 30.9 88 NW 4 G 11 29.81 1009.4 0.00

Data generated by WxSolution Version 1.9.1.7, Build 2018.11.24.


 
 
Current Radar Loop:

Copyright © WestfordWeather.net 2007-2020. All rights reserved.